Time;durP1;ratioP1;P1;durP2;ratioP2;P2;SDS_P1;SDS_P2;PMS_P1;PMS_P2;Temp;Humidity;BMP_temperature;BMP_pressure;BME280_temperature;BME280_humidity;BME280_pressure;Samples;Min_cycle;Max_cycle;Signal;HPM_P1;HPM_P2
2024/01/07 00:00:33;;;;;;;;;;;;;;;0.76;100.00;101697.72;5009417;28;20380;-79
2024/01/07 00:02:58;;;;;;;;;;;;;;;0.74;100.00;101695.97;5014156;28;20035;-79
2024/01/07 00:05:23;;;;;;;;;;;;;;;0.74;100.00;101700.38;5026872;28;20012;-80
2024/01/07 00:07:50;;;;;;;;;;;;;;;0.72;100.00;101699.53;5011388;28;19921;-80
2024/01/07 00:10:15;;;;;;;;;;;;;;;0.69;100.00;101696.97;5009105;28;19928;-80
2024/01/07 00:12:41;;;;;;;;;;;;;;;0.65;100.00;101705.88;5014231;28;20303;-80
2024/01/07 00:15:06;;;;;;;;;;;;;;;0.69;100.00;101704.88;5008745;28;20067;-80
2024/01/07 00:17:31;;;;;;;;;;;;;;;0.68;100.00;101711.06;5013864;28;19925;-80
2024/01/07 00:19:56;;;;;;;;;;;;;;;0.77;100.00;101710.03;5029846;28;19917;-79
2024/01/07 00:22:22;;;;;;;;;;;;;;;0.78;100.00;101712.63;5010686;28;19957;-80
2024/01/07 00:24:47;;;;;;;;;;;;;;;0.76;100.00;101716.22;5014849;28;20032;-80
2024/01/07 00:27:12;;;;;;;;;;;;;;;0.71;100.00;101714.53;5015158;28;20260;-80
2024/01/07 00:29:37;;;;;;;;;;;;;;;0.74;100.00;101721.53;5011463;28;20693;-80
2024/01/07 00:32:03;;;;;;;;;;;;;;;0.70;100.00;101719.84;4995123;28;19921;-80
2024/01/07 00:34:28;;;;;;;;;;;;;;;0.74;100.00;101717.13;5015622;28;20083;-78
2024/01/07 00:36:53;;;;;;;;;;;;;;;0.77;100.00;101728.53;5012966;28;20078;-80
2024/01/07 00:39:18;;;;;;;;;;;;;;;0.69;100.00;101729.56;5010642;28;19928;-80
2024/01/07 00:41:44;;;;;;;;;;;;;;;0.78;100.00;101732.91;4992553;28;20383;-78
2024/01/07 00:44:09;;;;;;;;;;;;;;;0.67;100.00;101736.66;5014811;28;20315;-80
2024/01/07 00:46:34;;;;;;;;;;;;;;;0.68;100.00;101732.22;4999104;28;20371;-84
2024/01/07 00:48:59;;;;;;;;;;;;;;;0.71;100.00;101730.41;5014922;28;20409;-80
2024/01/07 00:51:24;;;;;;;;;;;;;;;0.66;100.00;101734.06;4998312;28;20003;-80
2024/01/07 00:53:50;;;;;;;;;;;;;;;0.66;100.00;101740.19;5015238;28;19921;-80
2024/01/07 00:56:15;;;;;;;;;;;;;;;0.64;100.00;101742.00;4995328;28;19967;-80
2024/01/07 00:58:40;;;;;;;;;;;;;;;0.62;100.00;101735.03;5012221;28;19976;-80
2024/01/07 01:01:05;;;;;;;;;;;;;;;0.64;100.00;101746.44;5029758;28;20015;-80
2024/01/07 01:03:31;;;;;;;;;;;;;;;0.64;100.00;101747.28;5026704;28;20286;-80
2024/01/07 01:05:56;;;;;;;;;;;;;;;0.61;100.00;101751.78;4994009;28;20011;-80
2024/01/07 01:08:21;;;;;;;;;;;;;;;0.65;100.00;101750.81;5014861;28;20051;-80
2024/01/07 01:10:46;;;;;;;;;;;;;;;0.64;100.00;101752.56;5011996;28;19932;-81
2024/01/07 01:13:12;;;;;;;;;;;;;;;0.70;100.00;101759.50;5015052;28;19914;-80
2024/01/07 01:15:37;;;;;;;;;;;;;;;0.63;100.00;101750.84;5017475;28;20409;-80
2024/01/07 01:18:02;;;;;;;;;;;;;;;0.59;100.00;101755.34;5001089;28;20387;-80
2024/01/07 01:20:27;;;;;;;;;;;;;;;0.55;100.00;101758.06;4993718;28;20415;-81
2024/01/07 01:22:53;;;;;;;;;;;;;;;0.48;100.00;101759.97;5027068;28;19925;-79
2024/01/07 01:25:18;;;;;;;;;;;;;;;0.50;100.00;101767.88;5016595;28;19953;-81
2024/01/07 01:27:44;;;;;;;;;;;;;;;0.64;100.00;101764.94;5032487;28;20439;-80
2024/01/07 01:30:10;;;;;;;;;;;;;;;0.55;100.00;101763.34;4994779;28;20352;-81
2024/01/07 01:32:35;;;;;;;;;;;;;;;0.59;100.00;101771.19;5013563;28;19928;-80
2024/01/07 01:35:00;;;;;;;;;;;;;;;0.59;100.00;101770.31;5016779;28;19929;-81
2024/01/07 01:37:25;;;;;;;;;;;;;;;0.48;100.00;101769.69;5018192;28;19925;-80
2024/01/07 01:39:51;;;;;;;;;;;;;;;0.44;100.00;101771.50;5014639;28;19965;-80
2024/01/07 01:42:16;;;;;;;;;;;;;;;0.48;100.00;101782.88;5031745;28;19921;-79
2024/01/07 01:44:41;;;;;;;;;;;;;;;0.49;100.00;101777.56;5013153;28;19932;-80
2024/01/07 01:47:07;;;;;;;;;;;;;;;0.52;100.00;101779.28;5007794;28;19960;-80
2024/01/07 01:49:32;;;;;;;;;;;;;;;0.57;100.00;101783.56;5016390;28;19968;-80
2024/01/07 01:51:57;;;;;;;;;;;;;;;0.62;100.00;101790.53;5031219;28;20419;-80
2024/01/07 01:54:22;;;;;;;;;;;;;;;0.66;100.00;101789.56;4996858;28;19975;-79
2024/01/07 01:56:48;;;;;;;;;;;;;;;0.68;100.00;101790.38;5015479;28;20024;-80
2024/01/07 01:59:13;;;;;;;;;;;;;;;0.68;100.00;101793.03;5015216;28;20643;-79
2024/01/07 02:01:39;;;;;;;;;;;;;;;0.65;100.00;101796.63;5014680;28;19921;-81
2024/01/07 02:04:04;;;;;;;;;;;;;;;0.59;100.00;101792.34;4999218;28;19917;-81
2024/01/07 02:06:29;;;;;;;;;;;;;;;0.57;100.00;101796.78;4997347;28;19917;-82
2024/01/07 02:08:54;;;;;;;;;;;;;;;0.57;100.00;101799.41;5032457;28;19921;-81
2024/01/07 02:11:20;;;;;;;;;;;;;;;0.62;100.00;101806.38;5013944;28;19956;-81
2024/01/07 02:13:45;;;;;;;;;;;;;;;0.63;100.00;101800.19;5032725;28;20016;-81
2024/01/07 02:16:11;;;;;;;;;;;;;;;0.66;100.00;101803.66;5015333;28;19982;-80
2024/01/07 02:18:36;;;;;;;;;;;;;;;0.64;100.00;101805.44;5015902;28;20028;-81
2024/01/07 02:21:02;;;;;;;;;;;;;;;0.62;100.00;101803.75;5013532;28;20295;-80
2024/01/07 02:23:27;;;;;;;;;;;;;;;0.62;100.00;101806.38;5018235;28;19996;-81
2024/01/07 02:25:52;;;;;;;;;;;;;;;0.62;100.00;101807.25;5012779;28;19999;-80
2024/01/07 02:28:17;;;;;;;;;;;;;;;0.67;100.00;101810.66;4995172;28;19921;-80
2024/01/07 02:30:42;;;;;;;;;;;;;;;0.69;100.00;101806.22;5027851;28;19928;-80
2024/01/07 02:33:08;;;;;;;;;;;;;;;0.67;100.00;101813.31;5014446;28;19968;-80
2024/01/07 02:35:33;;;;;;;;;;;;;;;0.67;100.00;101813.31;5010148;28;20310;-80
2024/01/07 02:37:58;;;;;;;;;;;;;;;0.69;100.00;101818.56;5031091;28;20848;-80
2024/01/07 02:40:23;;;;;;;;;;;;;;;0.82;100.00;101824.47;5016048;28;19920;-80
2024/01/07 02:42:49;;;;;;;;;;;;;;;0.76;100.00;101833.41;5015405;28;19962;-80
2024/01/07 02:45:14;;;;;;;;;;;;;;;0.81;100.00;101833.28;5015948;28;19980;-80
2024/01/07 02:47:39;;;;;;;;;;;;;;;0.74;100.00;101837.84;5031455;28;19920;-80
2024/01/07 02:50:04;;;;;;;;;;;;;;;0.59;100.00;101836.38;4994741;28;19921;-80
2024/01/07 02:52:30;;;;;;;;;;;;;;;0.59;100.00;101839.91;5014483;28;19917;-81
2024/01/07 02:54:55;;;;;;;;;;;;;;;0.69;100.00;101845.88;4994742;28;19928;-80
2024/01/07 02:57:20;;;;;;;;;;;;;;;0.61;100.00;101847.78;5029473;28;20318;-81
2024/01/07 02:59:45;;;;;;;;;;;;;;;0.62;100.00;101849.53;5013426;28;19963;-81
2024/01/07 03:02:10;;;;;;;;;;;;;;;0.62;100.00;101846.03;5029373;28;19990;-81
2024/01/07 03:04:36;;;;;;;;;;;;;;;0.62;100.00;101851.31;5012283;28;20028;-80
2024/01/07 03:07:01;;;;;;;;;;;;;;;0.64;100.00;101845.09;5032190;28;19921;-81
2024/01/07 03:09:26;;;;;;;;;;;;;;;0.66;100.00;101855.66;5028417;28;19925;-80
2024/01/07 03:11:51;;;;;;;;;;;;;;;0.61;100.00;101857.50;5010274;28;19925;-80
2024/01/07 03:14:20;;;;;;;;;;;;;;;0.37;100.00;101822.75;5029434;28;19920;-80
2024/01/07 03:16:45;;;;;;;;;;;;;;;0.52;100.00;101851.50;5028511;28;19971;-81
2024/01/07 03:19:10;;;;;;;;;;;;;;;0.50;100.00;101855.94;5011388;28;20045;-79
2024/01/07 03:21:36;;;;;;;;;;;;;;;0.52;100.00;101856.78;5011398;28;19955;-79
2024/01/07 03:24:01;;;;;;;;;;;;;;;0.53;100.00;101857.66;5032932;28;20365;-81
2024/01/07 03:26:29;;;;;;;;;;;;;;;0.50;100.00;101863.00;5011574;28;20364;-80
2024/01/07 03:28:54;;;;;;;;;;;;;;;0.51;100.00;101859.47;5028959;28;20063;-80
2024/01/07 03:31:19;;;;;;;;;;;;;;;0.52;100.00;101862.06;5012215;28;19917;-80
2024/01/07 03:33:45;;;;;;;;;;;;;;;0.44;100.00;101858.69;5031326;28;19982;-81
2024/01/07 03:36:11;;;;;;;;;;;;;;;0.43;100.00;101864.88;5012866;28;19921;-81
2024/01/07 03:38:36;;;;;;;;;;;;;;;0.47;100.00;101869.19;5014775;28;19917;-82
2024/01/07 03:41:01;;;;;;;;;;;;;;;0.39;100.00;101868.50;5009664;28;20445;-81
2024/01/07 03:43:26;;;;;;;;;;;;;;;0.38;100.00;101870.25;5014930;28;19921;-82
2024/01/07 03:45:52;;;;;;;;;;;;;;;0.40;100.00;101872.84;5014829;28;19921;-81
2024/01/07 03:48:17;;;;;;;;;;;;;;;0.41;100.00;101872.84;4997181;28;19964;-81
2024/01/07 03:50:42;;;;;;;;;;;;;;;0.39;100.00;101879.06;5028745;28;19921;-82
2024/01/07 03:53:07;;;;;;;;;;;;;;;0.33;100.00;101882.66;5030376;28;20020;-82
2024/01/07 03:55:32;;;;;;;;;;;;;;;0.39;100.00;101893.13;5009323;28;19917;-81
2024/01/07 03:57:58;;;;;;;;;;;;;;;0.36;100.00;101890.53;5000005;28;19929;-81
2024/01/07 04:00:23;;;;;;;;;;;;;;;0.34;100.00;101889.69;5011143;28;19922;-83
2024/01/07 04:02:48;;;;;;;;;;;;;;;0.42;100.00;101889.56;5007646;28;19928;-82
2024/01/07 04:05:14;;;;;;;;;;;;;;;0.39;100.00;101884.34;4994490;28;19928;-81
2024/01/07 04:07:40;;;;;;;;;;;;;;;0.37;100.00;101896.72;5027276;28;19925;-82
2024/01/07 04:10:05;;;;;;;;;;;;;;;0.38;100.00;101893.19;5030163;28;19931;-81
2024/01/07 04:12:30;;;;;;;;;;;;;;;0.32;100.00;101899.41;5028914;28;19966;-83
2024/01/07 04:14:55;;;;;;;;;;;;;;;0.14;100.00;101877.72;5029571;28;19931;-81
2024/01/07 04:17:21;;;;;;;;;;;;;;;0.23;100.00;101911.03;5010756;28;19978;-84
2024/01/07 04:19:46;;;;;;;;;;;;;;;0.25;100.00;101909.22;5012578;28;20952;-85
2024/01/07 04:22:11;;;;;;;;;;;;;;;0.30;100.00;101909.16;5029178;28;19925;-82
2024/01/07 04:24:36;;;;;;;;;;;;;;;0.23;100.00;101910.16;4997943;28;19967;-80
2024/01/07 04:27:01;;;;;;;;;;;;;;;0.24;100.00;101919.84;5014915;28;20039;-80
2024/01/07 04:29:27;;;;;;;;;;;;;;;0.20;100.00;101928.72;5014094;28;20011;-81
2024/01/07 04:31:52;;;;;;;;;;;;;;;0.15;100.00;101920.84;5013164;28;19921;-81
2024/01/07 04:34:17;;;;;;;;;;;;;;;0.09;100.00;101935.03;5013984;28;19921;-81
2024/01/07 04:36:43;;;;;;;;;;;;;;;0.11;100.00;101938.53;5027306;28;19971;-80
2024/01/07 04:39:09;;;;;;;;;;;;;;;0.17;100.00;101934.03;5014544;28;19980;-80
2024/01/07 04:41:35;;;;;;;;;;;;;;;0.12;100.00;101940.25;4995329;28;19921;-80
2024/01/07 04:44:00;;;;;;;;;;;;;;;0.18;100.00;101939.28;5015590;28;20282;-81
2024/01/07 04:46:25;;;;;;;;;;;;;;;0.05;100.00;101941.25;5027022;28;20401;-84
2024/01/07 04:48:50;;;;;;;;;;;;;;;0.08;100.00;101943.84;5012126;28;20598;-79
2024/01/07 04:51:15;;;;;;;;;;;;;;;0.07;100.00;101936.81;5018021;28;19968;-81
2024/01/07 04:53:41;;;;;;;;;;;;;;;-0.01;100.00;101944.88;5031320;28;20426;-85
2024/01/07 04:56:06;;;;;;;;;;;;;;;0.08;100.00;101949.13;5000864;28;19992;-80
2024/01/07 04:58:31;;;;;;;;;;;;;;;0.09;100.00;101957.94;5027165;28;19961;-84
2024/01/07 05:00:56;;;;;;;;;;;;;;;0.11;100.00;101951.72;5017552;28;19925;-83
2024/01/07 05:03:22;;;;;;;;;;;;;;;0.11;100.00;101957.00;5009906;28;19972;-81
2024/01/07 05:05:47;;;;;;;;;;;;;;;0.12;100.00;101957.91;5029305;28;20275;-81
2024/01/07 05:08:12;;;;;;;;;;;;;;;0.09;100.00;101960.59;5031438;28;20315;-82
2024/01/07 05:10:37;;;;;;;;;;;;;;;-0.02;100.00;101964.25;5019052;28;20295;-85
2024/01/07 05:13:05;;;;;;;;;;;;;;;0.06;100.00;101973.84;5014396;28;20645;-83
2024/01/07 05:15:31;;;;;;;;;;;;;;;0.03;100.00;101977.38;5016563;28;20401;-81
2024/01/07 05:17:56;;;;;;;;;;;;;;;0.00;100.00;101980.09;5013789;28;19936;-82
2024/01/07 05:20:21;;;;;;;;;;;;;;;-0.01;100.00;101981.84;5031544;28;19933;-82
2024/01/07 05:22:46;;;;;;;;;;;;;;;-0.05;100.00;101980.13;5033186;28;19959;-82
2024/01/07 05:25:11;;;;;;;;;;;;;;;-0.01;100.00;101989.75;5017029;28;20663;-85
2024/01/07 05:27:37;;;;;;;;;;;;;;;0.02;100.00;101985.34;4997517;28;19928;-83
2024/01/07 05:30:02;;;;;;;;;;;;;;;0.00;100.00;101990.66;5014715;28;19999;-82
2024/01/07 05:32:27;;;;;;;;;;;;;;;0.01;100.00;101995.00;5015589;28;20024;-83
2024/01/07 05:34:53;;;;;;;;;;;;;;;-0.06;100.00;101999.50;5031889;28;19925;-86
2024/01/07 05:37:18;;;;;;;;;;;;;;;-0.17;100.00;101998.81;5016959;28;20630;-83
2024/01/07 05:39:43;;;;;;;;;;;;;;;-0.08;100.00;102005.72;5015007;28;20362;-82
2024/01/07 05:42:08;;;;;;;;;;;;;;;-0.21;100.00;102000.59;4998938;28;19925;-83
2024/01/07 05:44:34;;;;;;;;;;;;;;;-0.12;100.00;102002.25;5017338;28;20235;-83
2024/01/07 05:46:59;;;;;;;;;;;;;;;-0.11;100.00;102005.75;5000620;28;19928;-84
2024/01/07 05:49:24;;;;;;;;;;;;;;;-0.11;100.00;102008.41;4999962;28;19917;-80
2024/01/07 05:51:49;;;;;;;;;;;;;;;-0.08;100.00;102019.78;5015623;28;19928;-82
2024/01/07 05:54:14;;;;;;;;;;;;;;;-0.19;100.00;102024.38;4998038;28;19948;-82
2024/01/07 05:56:40;;;;;;;;;;;;;;;-0.09;100.00;102019.81;5014460;28;19960;-83
2024/01/07 05:59:05;;;;;;;;;;;;;;;-0.12;100.00;102026.00;5029043;28;19917;-82
2024/01/07 06:01:30;;;;;;;;;;;;;;;-0.12;100.00;102022.50;4999502;28;20298;-81
2024/01/07 06:03:56;;;;;;;;;;;;;;;-0.07;100.00;102029.44;5014628;28;19925;-81
2024/01/07 06:06:21;;;;;;;;;;;;;;;-0.07;100.00;102028.59;5017042;28;19972;-82
2024/01/07 06:08:46;;;;;;;;;;;;;;;-0.04;100.00;102029.41;4997074;28;20011;-82
2024/01/07 06:11:18;;;;;;;;;;;;;;;-0.16;100.00;102033.09;5034268;28;19932;-82
2024/01/07 06:13:43;;;;;;;;;;;;;;;-0.11;100.00;102040.09;5030924;28;20419;-82
2024/01/07 06:16:08;;;;;;;;;;;;;;;-0.03;100.00;102046.16;5015108;28;19983;-81
2024/01/07 06:18:33;;;;;;;;;;;;;;;-0.11;100.00;102048.00;5011710;28;20012;-81
2024/01/07 06:20:59;;;;;;;;;;;;;;;-0.16;100.00;102048.09;5013112;28;20082;-79
2024/01/07 06:23:24;;;;;;;;;;;;;;;-0.21;100.00;102060.47;5026937;28;19923;-80
2024/01/07 06:25:49;;;;;;;;;;;;;;;-0.25;100.00;102048.19;5016720;28;19923;-82
2024/01/07 06:28:14;;;;;;;;;;;;;;;-0.23;100.00;102055.19;5015364;28;19921;-82
2024/01/07 06:30:40;;;;;;;;;;;;;;;-0.14;100.00;102059.50;5017018;28;20437;-83
2024/01/07 06:33:05;;;;;;;;;;;;;;;-0.18;100.00;102063.94;5013712;28;20358;-81
2024/01/07 06:35:30;;;;;;;;;;;;;;;-0.22;100.00;102075.41;5016867;28;20386;-85
2024/01/07 06:37:55;;;;;;;;;;;;;;;-0.32;100.00;102077.28;4999044;28;19925;-85
2024/01/07 06:40:21;;;;;;;;;;;;;;;-0.29;100.00;102084.31;5017244;28;20523;-84
2024/01/07 06:42:48;;;;;;;;;;;;;;;-0.26;100.00;102080.75;5034367;28;20432;-80
2024/01/07 06:45:14;;;;;;;;;;;;;;;-0.28;100.00;102091.34;5015915;28;20332;-82
2024/01/07 06:47:40;;;;;;;;;;;;;;;-0.30;100.00;102095.78;5030442;28;19963;-85
2024/01/07 06:50:05;;;;;;;;;;;;;;;-0.31;100.00;102091.38;5014344;28;20334;-79
2024/01/07 06:52:31;;;;;;;;;;;;;;;-0.32;100.00;102102.84;4996899;28;19921;-83
2024/01/07 06:54:56;;;;;;;;;;;;;;;-0.27;100.00;102093.09;5031941;28;19921;-85
2024/01/07 06:57:21;;;;;;;;;;;;;;;-0.31;100.00;102112.50;5030293;28;20580;-83
2024/01/07 06:59:46;;;;;;;;;;;;;;;-0.32;100.00;102108.13;5013176;28;20387;-82
2024/01/07 07:02:11;;;;;;;;;;;;;;;-0.27;100.00;102110.69;5027246;28;20533;-83
2024/01/07 07:04:37;;;;;;;;;;;;;;;-0.28;100.00;102122.13;5025271;28;20426;-83
2024/01/07 07:07:02;;;;;;;;;;;;;;;-0.34;100.00;102123.94;5012996;28;20431;-82
2024/01/07 07:09:27;;;;;;;;;;;;;;;-0.36;100.00;102127.50;5030877;28;20532;-84
2024/01/07 07:11:52;;;;;;;;;;;;;;;-0.35;100.00;102126.63;5013590;28;19925;-85
2024/01/07 07:14:18;;;;;;;;;;;;;;;-0.30;100.00;102132.72;4992929;28;20342;-82
2024/01/07 07:16:43;;;;;;;;;;;;;;;-0.37;100.00;102136.31;5030058;28;20091;-83
2024/01/07 07:19:08;;;;;;;;;;;;;;;-0.37;100.00;102126.63;5030565;28;19978;-82
2024/01/07 07:21:33;;;;;;;;;;;;;;;-0.32;100.00;102140.66;5008067;28;19925;-80
2024/01/07 07:23:58;;;;;;;;;;;;;;;-0.31;100.00;102142.41;5005958;28;19921;-85
2024/01/07 07:26:24;;;;;;;;;;;;;;;-0.34;100.00;102149.47;5009296;28;20252;-85
2024/01/07 07:28:58;;;;;;;;;;;;;;;-0.33;100.00;102145.94;5059368;27;20461;-82
2024/01/07 07:31:23;;;;;;;;;;;;;;;-0.40;100.00;102149.53;5077970;28;19970;-81
2024/01/07 07:33:48;;;;;;;;;;;;;;;-0.42;100.00;102160.13;5038253;28;19924;-82
2024/01/07 07:36:14;;;;;;;;;;;;;;;-0.47;100.00;102154.03;5042642;28;20551;-84
2024/01/07 07:38:40;;;;;;;;;;;;;;;-0.46;100.00;102172.47;5040841;28;20007;-87
2024/01/07 07:41:05;;;;;;;;;;;;;;;-0.48;100.00;102174.25;5023391;28;19916;-84
2024/01/07 07:43:30;;;;;;;;;;;;;;;-0.48;100.00;102186.56;5032232;28;19921;-84
2024/01/07 07:45:55;;;;;;;;;;;;;;;-0.48;100.00;102191.84;5077870;28;19962;-86
2024/01/07 07:48:20;;;;;;;;;;;;;;;-0.51;100.00;102192.72;5074059;28;19928;-86
2024/01/07 07:50:46;;;;;;;;;;;;;;;-0.46;100.00;102188.28;5045795;28;20800;-82
2024/01/07 07:53:11;;;;;;;;;;;;;;;-0.40;100.00;102191.75;5068890;28;21045;-83
2024/01/07 07:55:36;;;;;;;;;;;;;;;-0.49;100.00;102198.88;5041236;28;20328;-81
2024/01/07 07:58:01;;;;;;;;;;;;;;;-0.51;100.00;102198.00;5036602;28;20418;-91
2024/01/07 08:00:27;;;;;;;;;;;;;;;-0.42;100.00;102214.66;5045967;28;19970;-90
2024/01/07 08:02:52;;;;;;;;;;;;;;;-0.47;100.00;102206.78;5033165;28;19921;-86
2024/01/07 08:05:18;;;;;;;;;;;;;;;-0.49;100.00;102198.88;5032962;28;19978;-81
2024/01/07 08:07:43;;;;;;;;;;;;;;;-0.47;100.00;102207.66;5033305;28;20086;-86
2024/01/07 08:10:08;;;;;;;;;;;;;;;-0.44;100.00;102208.50;5054638;28;20008;-86
2024/01/07 08:12:33;;;;;;;;;;;;;;;-0.47;100.00;102209.44;5038393;28;19917;-82
2024/01/07 08:14:59;;;;;;;;;;;;;;;-0.50;100.00;102214.72;5035744;28;19935;-88
2024/01/07 08:17:24;;;;;;;;;;;;;;;-0.50;100.00;102220.88;5053817;28;19928;-89
2024/01/07 08:19:49;;;;;;;;;;;;;;;-0.46;100.00;102219.09;5018148;28;19928;-90
2024/01/07 08:22:14;;;;;;;;;;;;;;;-0.42;100.00;102231.38;5032827;28;19921;-86
2024/01/07 08:24:40;;;;;;;;;;;;;;;-0.41;100.00;102221.69;5029797;28;20295;-83
2024/01/07 08:27:05;;;;;;;;;;;;;;;-0.39;100.00;102235.75;5038518;28;19929;-89
2024/01/07 08:29:30;;;;;;;;;;;;;;;-0.34;100.00;102228.66;5041791;28;19927;-87
2024/01/07 08:31:55;;;;;;;;;;;;;;;-0.29;100.00;102233.88;5033569;28;19921;-86
2024/01/07 08:34:20;;;;;;;;;;;;;;;-0.36;100.00;102236.56;5040280;28;19917;-87
2024/01/07 08:36:46;;;;;;;;;;;;;;;-0.31;100.00;102241.84;5028509;28;19947;-86
2024/01/07 08:39:11;;;;;;;;;;;;;;;-0.40;100.00;102242.81;5029315;28;19925;-88
2024/01/07 08:41:36;;;;;;;;;;;;;;;-0.38;100.00;102255.97;5022607;28;20339;-89
2024/01/07 08:44:02;;;;;;;;;;;;;;;-0.38;100.00;102250.69;5028873;28;19924;-91
2024/01/07 08:46:27;;;;;;;;;;;;;;;-0.38;100.00;102259.47;5025829;28;19925;-79
2024/01/07 08:48:52;;;;;;;;;;;;;;;-0.40;100.00;102260.38;5020215;28;19946;-87
2024/01/07 08:51:17;;;;;;;;;;;;;;;-0.47;100.00;102256.94;5025040;28;19951;-89
2024/01/07 08:53:42;;;;;;;;;;;;;;;-0.40;100.00;102261.28;5019797;28;19995;-87
2024/01/07 08:56:08;;;;;;;;;;;;;;;-0.49;100.00;102261.34;5035243;28;19921;-89
2024/01/07 08:58:33;;;;;;;;;;;;;;;-0.56;100.00;102273.72;5021774;28;20583;-89
2024/01/07 09:00:59;;;;;;;;;;;;;;;-0.67;100.00;102276.44;5033085;28;20648;-88
2024/01/07 09:03:24;;;;;;;;;;;;;;;-0.64;100.00;102281.66;5017532;28;20398;-88
2024/01/07 09:05:49;;;;;;;;;;;;;;;-0.54;100.00;102279.88;5021399;28;20450;-89
2024/01/07 09:08:14;;;;;;;;;;;;;;;-0.48;100.00;102289.47;5023129;28;20397;-92
2024/01/07 09:10:40;;;;;;;;;;;;;;;-0.48;100.00;102295.63;5019933;28;19928;-86
2024/01/07 09:13:05;;;;;;;;;;;;;;;-0.44;100.00;102301.78;5028068;28;19967;-91
2024/01/07 09:15:30;;;;;;;;;;;;;;;-0.43;100.00;102305.28;5018169;28;20299;-89
2024/01/07 09:17:55;;;;;;;;;;;;;;;-0.40;100.00;102311.41;5018030;28;20307;-88
2024/01/07 09:20:20;;;;;;;;;;;;;;;-0.42;100.00;102325.50;5016258;28;20395;-84
2024/01/07 09:22:46;;;;;;;;;;;;;;;-0.50;100.00;102310.59;5006435;28;20402;-84
2024/01/07 09:25:11;;;;;;;;;;;;;;;-0.45;100.00;102326.41;5032147;28;19985;-89
2024/01/07 09:27:36;;;;;;;;;;;;;;;-0.60;100.00;102332.66;5033643;28;19927;-92
2024/01/07 09:30:02;;;;;;;;;;;;;;;-0.71;100.00;102334.50;5041749;28;20081;-88
2024/01/07 09:32:27;;;;;;;;;;;;;;;-0.72;100.00;102328.34;5063073;28;20340;-87
2024/01/07 09:34:53;;;;;;;;;;;;;;;-0.73;100.00;102339.78;5034618;28;19930;-86
2024/01/07 09:37:18;;;;;;;;;;;;;;;-0.77;100.00;102345.97;5032328;28;19925;-85
2024/01/07 09:39:44;;;;;;;;;;;;;;;-0.64;100.00;102341.50;5059900;28;20292;-86
2024/01/07 09:42:13;;;;;;;;;;;;;;;-0.57;100.00;102347.59;5038196;28;20428;-89
2024/01/07 09:44:38;;;;;;;;;;;;;;;-0.57;100.00;102351.13;5047567;28;19924;-86
2024/01/07 09:47:04;;;;;;;;;;;;;;;-0.71;100.00;102358.22;5038328;28;19932;-87
2024/01/07 09:49:29;;;;;;;;;;;;;;;-0.70;100.00;102352.97;5041633;28;19920;-85
2024/01/07 09:51:55;;;;;;;;;;;;;;;-0.69;100.00;102351.19;5023444;28;19920;-88
2024/01/07 09:54:20;;;;;;;;;;;;;;;-0.64;100.00;102352.03;5037842;28;20386;-81
2024/01/07 09:56:51;;;;;;;;;;;;;;;-0.59;100.00;102362.56;5043200;28;19925;-88
2024/01/07 09:59:16;;;;;;;;;;;;;;;-0.68;100.00;102369.66;5023800;28;20345;-89
2024/01/07 10:01:41;;;;;;;;;;;;;;;-0.61;100.00;102374.00;5031136;28;19921;-90
2024/01/07 10:04:06;;;;;;;;;;;;;;;-0.57;100.00;102376.63;5025957;28;20129;-85
2024/01/07 10:06:32;;;;;;;;;;;;;;;-0.70;100.00;102381.09;5035430;28;20433;-88
2024/01/07 10:08:58;;;;;;;;;;;;;;;-0.79;100.00;102374.09;5053318;28;20393;-86
2024/01/07 10:11:23;;;;;;;;;;;;;;;-0.61;100.00;102373.13;5013706;28;19920;-85
2024/01/07 10:13:49;;;;;;;;;;;;;;;-0.82;100.00;102380.28;5033225;28;19926;-85
2024/01/07 10:16:14;;;;;;;;;;;;;;;-0.73;100.00;102376.72;5051212;28;19920;-86
2024/01/07 10:18:40;;;;;;;;;;;;;;;-0.74;100.00;102385.53;5013278;28;19927;-86
2024/01/07 10:21:06;;;;;;;;;;;;;;;-0.73;100.00;102392.53;5025702;28;19916;-84
2024/01/07 10:23:31;;;;;;;;;;;;;;;-0.63;100.00;102386.31;5019939;28;19963;-87
2024/01/07 10:25:57;;;;;;;;;;;;;;;-0.48;100.00;102387.97;5021868;28;19925;-88
2024/01/07 10:28:22;;;;;;;;;;;;;;;-0.43;100.00;102381.78;5020363;28;19928;-85
2024/01/07 10:30:51;;;;;;;;;;;;;;;-0.31;100.00;102387.00;5020150;28;19920;-83
2024/01/07 10:33:19;;;;;;;;;;;;;;;-0.34;100.00;102390.53;5039502;28;19921;-87
2024/01/07 10:35:48;;;;;;;;;;;;;;;-0.37;100.00;102392.31;5024330;28;19923;-85
2024/01/07 10:38:13;;;;;;;;;;;;;;;-0.37;100.00;102382.63;5020516;28;19924;-82
2024/01/07 10:40:39;;;;;;;;;;;;;;;-0.36;100.00;102394.94;5035272;28;19920;-86
2024/01/07 10:43:04;;;;;;;;;;;;;;;-0.27;100.00;102396.66;5023021;28;19956;-87
2024/01/07 10:45:29;;;;;;;;;;;;;;;-0.33;100.00;102389.63;5025856;28;20305;-88
2024/01/07 10:47:55;;;;;;;;;;;;;;;-0.26;100.00;102390.47;5021875;28;20846;-89
2024/01/07 10:50:20;;;;;;;;;;;;;;;-0.28;100.00;102392.25;5027522;28;20372;-91
2024/01/07 10:52:50;;;;;;;;;;;;;;;-0.10;100.00;102390.34;5029529;28;20470;-85
2024/01/07 10:55:15;;;;;;;;;;;;;;;-0.09;100.00;102394.75;5022807;28;19920;-90
2024/01/07 10:57:45;;;;;;;;;;;;;;;-0.01;100.00;102391.16;5019874;28;19924;-85
2024/01/07 11:00:18;;;;;;;;;;;;;;;0.04;100.00;102390.25;5027918;28;20242;-85
2024/01/07 11:02:58;;;;;;;;;;;;;;;0.09;100.00;102399.00;5006799;28;20531;-88
2024/01/07 11:05:29;;;;;;;;;;;;;;;0.16;100.00;102397.19;5042549;28;20367;-88
2024/01/07 11:08:05;;;;;;;;;;;;;;;0.19;100.00;102400.66;5040303;28;19924;-84
2024/01/07 11:10:41;;;;;;;;;;;;;;;0.18;100.00;102398.91;5018039;28;20500;-86
2024/01/07 11:13:07;;;;;;;;;;;;;;;0.05;100.00;102406.06;5019022;28;19928;-90
2024/01/07 11:15:47;;;;;;;;;;;;;;;0.10;100.00;102406.03;5005023;28;19921;-90
2024/01/07 11:18:19;;;;;;;;;;;;;;;0.06;100.00;102406.94;5035476;28;19920;-87
2024/01/07 11:20:44;;;;;;;;;;;;;;;0.17;100.00;102417.44;5036212;28;19928;-85
2024/01/07 11:23:32;;;;;;;;;;;;;;;0.09;100.00;102421.00;5022424;28;19924;-86
2024/01/07 11:25:58;;;;;;;;;;;;;;;0.11;100.00;102416.59;5030092;28;20321;-85
2024/01/07 11:28:42;;;;;;;;;;;;;;;0.08;100.00;102415.75;5030615;28;19934;-85
2024/01/07 11:31:08;;;;;;;;;;;;;;;0.12;100.00;102420.97;5053756;28;20445;-90
2024/01/07 11:33:34;;;;;;;;;;;;;;;0.05;100.00;102418.41;5026446;28;19917;-88
2024/01/07 11:36:00;;;;;;;;;;;;;;;0.04;100.00;102420.16;5029934;28;19920;-83
2024/01/07 11:38:26;;;;;;;;;;;;;;;0.13;100.00;102420.09;5032294;28;20015;-92
2024/01/07 11:40:52;;;;;;;;;;;;;;;0.30;100.00;102416.41;5027927;28;20015;-90
2024/01/07 11:43:17;;;;;;;;;;;;;;;0.49;100.00;102409.19;5038448;28;19920;-92
2024/01/07 11:45:42;;;;;;;;;;;;;;;0.59;100.00;102415.25;5033253;28;19991;-92
2024/01/07 11:48:07;;;;;;;;;;;;;;;0.50;100.00;102418.84;5041350;28;19925;-90
2024/01/07 11:50:33;;;;;;;;;;;;;;;0.40;100.00;102414.53;5045423;28;19927;-86
2024/01/07 11:52:58;;;;;;;;;;;;;;;0.28;100.00;102415.53;5024148;28;20015;-86
2024/01/07 11:55:23;;;;;;;;;;;;;;;0.18;100.00;102417.41;5033871;28;19917;-78
2024/01/07 11:57:48;;;;;;;;;;;;;;;-0.06;100.00;102419.34;5033573;28;19956;-86
2024/01/07 12:00:14;;;;;;;;;;;;;;;0.01;100.00;102414.03;5033415;28;19975;-83
2024/01/07 12:02:39;;;;;;;;;;;;;;;0.01;100.00;102424.59;5033251;28;19923;-89
2024/01/07 12:05:04;;;;;;;;;;;;;;;0.07;100.00;102412.22;5003346;28;20335;-87
2024/01/07 12:07:29;;;;;;;;;;;;;;;0.23;100.00;102425.31;5035901;28;20433;-85
2024/01/07 12:09:58;;;;;;;;;;;;;;;0.19;100.00;102420.94;5013716;28;19925;-87
2024/01/07 12:12:23;;;;;;;;;;;;;;;0.37;100.00;102411.97;5013590;28;20170;-85
2024/01/07 12:14:48;;;;;;;;;;;;;;;0.50;100.00;102416.22;5028826;28;19925;-86
2024/01/07 12:17:16;;;;;;;;;;;;;;;0.63;100.00;102416.97;5019167;28;20040;-84
2024/01/07 12:19:41;;;;;;;;;;;;;;;0.85;100.00;102424.66;5035327;28;19963;-86
2024/01/07 12:22:07;;;;;;;;;;;;;;;1.34;100.00;102420.53;5035121;28;20027;-82
2024/01/07 12:24:32;;;;;;;;;;;;;;;1.52;100.00;102418.50;5037419;28;19921;-86